Time;durP1;ratioP1;P1;durP2;ratioP2;P2;SDS_P1;SDS_P2;PMS_P1;PMS_P2;Temp;Humidity;BMP_temperature;BMP_pressure;BME280_temperature;BME280_humidity;BME280_pressure;Samples;Min_cycle;Max_cycle;Signal;HPM_P1;HPM_P2
2021/05/17 00:03:02;;;;;;;2.33;1.10;;;;;;;9.77;100.00;96902.55;3712218;79;73123;-23
2021/05/17 00:08:10;;;;;;;1.27;0.90;;;;;;;9.74;100.00;96896.20;3714932;78;43989;-22
2021/05/17 00:13:17;;;;;;;1.55;0.93;;;;;;;9.63;100.00;96896.73;3661539;80;43158;-22
2021/05/17 00:18:24;;;;;;;1.67;1.07;;;;;;;9.54;100.00;96895.52;3750699;77;43685;-22
2021/05/17 00:23:31;;;;;;;2.27;1.40;;;;;;;9.41;100.00;96901.59;3743787;77;44086;-23
2021/05/17 00:28:38;;;;;;;1.50;1.25;;;;;;;9.31;100.00;96914.51;3751742;78;44011;-22
2021/05/17 00:33:45;;;;;;;2.70;1.40;;;;;;;9.21;100.00;96913.49;3756387;77;43717;-22
2021/05/17 00:38:52;;;;;;;1.30;1.20;;;;;;;9.12;100.00;96911.92;3749721;77;43410;-22
2021/05/17 00:43:59;;;;;;;2.60;1.50;;;;;;;9.06;100.00;96916.72;3744220;78;43741;-22
2021/05/17 00:49:06;;;;;;;2.83;1.40;;;;;;;9.00;100.00;96920.14;3756118;77;43318;-22
2021/05/17 00:54:14;;;;;;;2.20;1.60;;;;;;;8.94;100.00;96916.36;3751820;77;43984;-22
2021/05/17 00:59:21;;;;;;;2.02;1.50;;;;;;;8.96;100.00;96924.25;3752030;78;44036;-22
2021/05/17 01:04:27;;;;;;;2.80;1.35;;;;;;;8.93;100.00;96917.41;3744488;77;43681;-21
2021/05/17 01:09:36;;;;;;;2.60;1.52;;;;;;;8.87;100.00;96913.62;3751667;77;44350;-22
2021/05/17 01:14:42;;;;;;;3.20;1.50;;;;;;;8.75;100.00;96919.14;3757134;77;43722;-20
2021/05/17 01:19:59;;;;;;;1.60;1.50;;;;;;;8.71;100.00;96921.87;3748225;77;43730;-20
2021/05/17 01:25:09;;;;;;;3.95;1.77;;;;;;;8.67;100.00;96921.91;3755966;77;73580;-21
2021/05/17 01:30:19;;;;;;;3.73;1.37;;;;;;;8.68;100.00;96927.60;3738510;78;43413;-21
2021/05/17 01:35:26;;;;;;;2.37;1.40;;;;;;;8.69;100.00;96926.09;3749117;77;43677;-21
2021/05/17 01:40:33;;;;;;;1.50;1.07;;;;;;;8.68;100.00;96926.26;3750822;77;43995;-21
2021/05/17 01:45:41;;;;;;;2.62;1.20;;;;;;;8.70;100.00;96938.47;3756423;77;43706;-21
2021/05/17 01:50:47;;;;;;;3.33;1.37;;;;;;;8.68;100.00;96944.56;3753453;77;44506;-21
2021/05/17 01:55:53;;;;;;;2.37;1.20;;;;;;;8.69;100.00;96935.48;3757704;77;44030;-21
2021/05/17 02:01:01;;;;;;;2.00;1.30;;;;;;;8.68;100.00;96941.88;3739586;78;43304;-21
2021/05/17 02:06:08;;;;;;;2.60;1.50;;;;;;;8.69;100.00;96934.15;3742935;78;74410;-21
2021/05/17 02:11:16;;;;;;;1.60;1.37;;;;;;;8.76;100.00;96940.95;3749069;77;43670;-21
2021/05/17 02:16:24;;;;;;;1.35;1.25;;;;;;;8.77;100.00;96942.59;3756564;77;26291;-21
2021/05/17 02:21:31;;;;;;;2.30;1.40;;;;;;;8.81;100.00;96947.10;3754059;78;43453;-21
2021/05/17 02:26:38;;;;;;;2.17;1.20;;;;;;;8.84;100.00;96944.02;3744534;77;43694;-22
2021/05/17 02:31:45;;;;;;;2.27;1.50;;;;;;;8.84;100.00;96939.50;3747830;78;43725;-21
2021/05/17 02:36:52;;;;;;;3.93;1.67;;;;;;;8.83;100.00;96939.17;3739461;78;43943;-22
2021/05/17 02:42:01;;;;;;;4.03;1.60;;;;;;;8.76;100.00;96948.48;3763597;77;44003;-22
2021/05/17 02:47:09;;;;;;;2.85;1.65;;;;;;;8.76;100.00;96951.16;3750670;78;43699;-23
2021/05/17 02:52:17;;;;;;;1.47;1.37;;;;;;;8.72;100.00;96951.73;3755463;78;44070;-23
2021/05/17 02:57:27;;;;;;;2.15;1.30;;;;;;;8.69;100.00;96961.48;3765644;77;44027;-21
2021/05/17 03:02:35;;;;;;;1.52;1.42;;;;;;;8.66;100.00;96968.56;3751598;78;43183;-21
2021/05/17 03:07:46;;;;;;;2.58;1.42;;;;;;;8.59;100.00;96977.37;3741184;79;43098;-21
2021/05/17 03:12:56;;;;;;;0.90;0.80;;;;;;;8.46;100.00;96969.94;3740122;77;43683;-21
2021/05/17 03:18:02;;;;;;;1.25;1.00;;;;;;;8.57;100.00;96969.19;3751029;78;44064;-21
2021/05/17 03:23:11;;;;;;;0.97;0.90;;;;;;;8.61;100.00;96975.34;3759119;78;43010;-22
2021/05/17 03:28:17;;;;;;;1.55;1.10;;;;;;;8.55;100.00;96975.23;3757342;78;44027;-21
2021/05/17 03:33:23;;;;;;;1.60;1.10;;;;;;;8.46;100.00;96983.84;3746657;77;43360;-23
2021/05/17 03:38:29;;;;;;;1.30;1.20;;;;;;;8.32;100.00;96993.55;3755896;77;44081;-21
2021/05/17 03:43:35;;;;;;;1.90;1.37;;;;;;;8.30;100.00;96986.19;3749653;77;44024;-22
2021/05/17 03:48:42;;;;;;;1.92;1.35;;;;;;;8.27;100.00;96995.44;3748674;77;44595;-22
2021/05/17 03:53:48;;;;;;;2.17;1.30;;;;;;;8.23;100.00;97003.52;3750754;77;43358;-23
2021/05/17 03:58:54;;;;;;;1.52;1.20;;;;;;;8.23;100.00;97004.86;3762926;77;43418;-21
2021/05/17 04:04:01;;;;;;;1.40;1.30;;;;;;;8.21;100.00;96996.67;3756863;77;43998;-22
2021/05/17 04:14:32;;;;;;;3.77;1.85;;;;;;;8.14;100.00;97002.75;3748942;78;44033;-20
2021/05/17 04:19:39;;;;;;;4.08;1.85;;;;;;;8.14;100.00;97009.97;3753490;77;44090;-18
2021/05/17 04:24:45;;;;;;;2.15;1.50;;;;;;;8.13;100.00;97014.48;3756771;77;44141;-22
2021/05/17 04:29:51;;;;;;;1.87;1.60;;;;;;;8.17;100.00;97014.98;3761968;77;44084;-21
2021/05/17 04:34:57;;;;;;;1.95;1.50;;;;;;;8.25;100.00;97025.64;3755816;77;44786;-21
2021/05/17 04:40:04;;;;;;;2.57;1.63;;;;;;;8.35;100.00;97025.88;3741945;77;43473;-22
2021/05/17 04:45:13;;;;;;;2.83;1.30;;;;;;;8.50;100.00;97034.84;3746155;79;43468;-21
2021/05/17 04:50:20;;;;;;;2.35;1.57;;;;;;;8.68;100.00;97039.87;3737085;77;73280;-22
2021/05/17 04:55:26;;;;;;;2.83;1.50;;;;;;;8.91;100.00;97038.95;3759435;77;43378;-22
2021/05/17 05:00:32;;;;;;;2.83;2.50;;;;;;;8.98;100.00;97043.08;3757411;79;44066;-22
2021/05/17 05:05:39;;;;;;;2.45;1.70;;;;;;;9.07;100.00;97040.62;3751633;77;44037;-23
2021/05/17 05:10:45;;;;;;;2.45;1.52;;;;;;;9.08;100.00;97043.11;3757751;77;43429;-23
2021/05/17 05:15:53;;;;;;;1.90;1.70;;;;;;;9.09;100.00;97043.95;3733118;78;44483;-23
2021/05/17 05:21:00;;;;;;;1.87;1.63;;;;;;;9.09;100.00;97050.15;3752219;77;43686;-21
2021/05/17 05:31:54;;;;;;;1.80;1.50;;;;;;;9.44;100.00;97050.92;3753933;79;43714;-22
2021/05/17 05:36:59;;;;;;;2.20;1.50;;;;;;;9.72;100.00;97056.91;3748108;77;44104;-21
2021/05/17 05:42:07;;;;;;;1.60;1.50;;;;;;;9.93;100.00;97063.37;3751045;77;44167;-21
2021/05/17 05:47:15;;;;;;;2.62;1.10;;;;;;;10.14;100.00;97060.69;3740668;78;43730;-22
2021/05/17 05:52:21;;;;;;;2.27;1.05;;;;;;;10.30;100.00;97068.16;3746209;77;43296;-21
2021/05/17 05:57:27;;;;;;;1.30;1.20;;;;;;;10.41;100.00;97064.97;3751686;77;44011;-22
2021/05/17 06:02:34;;;;;;;1.82;1.30;;;;;;;10.55;100.00;97069.13;3747845;79;44117;-22
2021/05/17 06:07:40;;;;;;;1.30;1.20;;;;;;;10.72;100.00;97081.30;3746923;77;43385;-22
2021/05/17 06:12:48;;;;;;;1.67;1.10;;;;;;;10.72;100.00;97078.60;3731957;77;44081;-22
2021/05/17 06:17:55;;;;;;;1.45;1.32;;;;;;;10.72;100.00;97072.37;3739760;77;44095;-22
2021/05/17 06:23:02;;;;;;;1.40;1.12;;;;;;;10.87;100.00;97085.77;3739041;79;44040;-21
2021/05/17 06:28:09;;;;;;;1.87;1.10;;;;;;;10.97;100.00;97088.09;3745315;77;43069;-22
2021/05/17 06:33:16;;;;;;;1.55;1.30;;;;;;;11.11;100.00;97085.81;3745437;79;43714;-22
2021/05/17 06:38:22;;;;;;;1.72;1.00;;;;;;;11.01;100.00;97109.06;3749202;77;43394;-22
2021/05/17 06:43:29;;;;;;;2.37;1.10;;;;;;;11.16;100.00;97096.84;3750915;77;43416;-22
2021/05/17 06:48:42;;;;;;;2.53;1.70;;;;;;;11.24;100.00;97099.88;3748976;78;44438;-22
2021/05/17 06:53:44;;;;;;;2.30;2.10;;;;;;;11.51;100.00;97083.84;3745580;78;43228;-21
2021/05/17 06:58:56;;;;;;;3.02;1.65;;;;;;;11.72;100.00;97089.13;3750319;77;43685;-22
2021/05/17 07:04:04;;;;;;;1.52;1.40;;;;;;;11.66;100.00;97091.78;3724754;79;43373;-22
2021/05/17 07:14:34;;;;;;;2.62;1.37;;;;;;;11.64;100.00;97100.09;3741860;79;43288;-22
2021/05/17 07:19:40;;;;;;;1.00;0.90;;;;;;;11.67;100.00;97098.34;3738598;77;44063;-22
2021/05/17 07:24:46;;;;;;;1.52;1.00;;;;;;;11.78;100.00;97104.20;3737128;77;43993;-22
2021/05/17 07:29:52;;;;;;;2.02;1.00;;;;;;;11.93;100.00;97108.94;3741612;77;43140;-22
2021/05/17 07:34:58;;;;;;;1.55;1.00;;;;;;;12.06;100.00;97100.56;3742297;78;44582;-22
2021/05/17 07:40:06;;;;;;;1.47;0.98;;;;;;;12.26;100.00;97096.07;3731966;77;44468;-22
2021/05/17 07:45:13;;;;;;;1.77;1.10;;;;;;;12.32;100.00;97103.34;3750963;77;44086;-23
2021/05/17 07:50:20;;;;;;;1.10;1.00;;;;;;;12.36;100.00;97107.80;3736070;77;43679;-23
2021/05/17 07:55:25;;;;;;;1.62;0.90;;;;;;;12.46;100.00;97106.06;3744255;77;44101;-23
2021/05/17 08:00:33;;;;;;;1.65;1.02;;;;;;;12.62;100.00;97104.33;3742597;79;43691;-22
2021/05/17 08:05:39;;;;;;;1.57;1.00;;;;;;;12.61;100.00;97099.95;3741252;77;43013;-21
2021/05/17 08:10:46;;;;;;;1.70;0.80;;;;;;;12.71;100.00;97096.00;3744349;77;44519;-22
2021/05/17 08:15:52;;;;;;;1.22;0.78;;;;;;;12.74;100.00;97099.66;3730497;78;44110;-22
2021/05/17 08:20:57;;;;;;;2.42;0.90;;;;;;;12.93;100.00;97108.80;3698808;78;42879;-21
2021/05/17 08:26:07;;;;;;;1.30;0.78;;;;;;;12.90;100.00;97105.97;3705818;79;44193;-22
2021/05/17 08:31:14;;;;;;;1.12;0.62;;;;;;;13.08;100.00;97105.33;3691153;79;44051;-21
2021/05/17 08:36:20;;;;;;;1.00;0.90;;;;;;;13.12;100.00;97110.33;3575099;81;43669;-21
2021/05/17 08:41:27;;;;;;;1.15;0.80;;;;;;;13.25;100.00;97119.24;3701722;78;43283;-22
2021/05/17 08:46:33;;;;;;;1.25;0.88;;;;;;;13.25;100.00;97116.53;3699924;78;43996;-22
2021/05/17 08:51:38;;;;;;;1.77;0.80;;;;;;;13.15;100.00;97118.84;3694955;79;44095;-22
2021/05/17 08:56:46;;;;;;;0.85;0.80;;;;;;;12.93;100.00;97124.48;3687874;79;43005;-21
2021/05/17 09:01:52;;;;;;;2.05;0.82;;;;;;;13.10;100.00;97124.06;3582047;82;43010;-22
2021/05/17 09:06:59;;;;;;;2.02;0.70;;;;;;;13.13;100.00;97138.50;3698573;78;43471;-22
2021/05/17 09:12:09;;;;;;;0.95;0.62;;;;;;;13.30;100.00;97136.19;3695039;79;44028;-22
2021/05/17 09:17:15;;;;;;;0.70;0.60;;;;;;;13.09;100.00;97136.73;3661516;80;43695;-21
2021/05/17 09:22:21;;;;;;;1.07;0.55;;;;;;;13.16;100.00;97146.20;3678317;80;44245;-21
2021/05/17 09:27:30;;;;;;;0.70;0.70;;;;;;;13.23;100.00;97156.48;3663481;78;43316;-21
2021/05/17 09:32:38;;;;;;;1.00;0.50;;;;;;;13.36;100.00;97153.45;3740203;77;43272;-21
2021/05/17 09:37:47;;;;;;;0.82;0.40;;;;;;;13.21;100.00;97154.53;3741524;77;43475;-22
2021/05/17 09:43:04;;;;;;;0.78;0.60;;;;;;;13.22;100.00;97164.81;3738511;77;44482;-20
2021/05/17 09:48:13;;;;;;;0.60;0.55;;;;;;;13.47;95.90;97158.24;3735901;79;44505;-21
2021/05/17 09:53:24;;;;;;;0.47;0.40;;;;;;;13.58;92.58;97149.20;3734878;79;44711;-23
2021/05/17 09:58:35;;;;;;;0.78;0.65;;;;;;;13.57;98.29;97153.76;3745622;77;44170;-21
2021/05/17 10:03:45;;;;;;;1.02;0.50;;;;;;;13.54;98.52;97154.17;3747216;77;44509;-21
2021/05/17 10:08:51;;;;;;;0.85;0.60;;;;;;;13.71;100.00;97152.69;3744051;79;43014;-21
2021/05/17 10:13:57;;;;;;;1.10;0.50;;;;;;;13.85;97.89;97137.22;3743327;77;44234;-21
2021/05/17 10:19:04;;;;;;;0.70;0.50;;;;;;;13.76;94.08;97144.46;3740195;78;44227;-22
2021/05/17 10:24:10;;;;;;;1.15;0.50;;;;;;;14.29;91.78;97140.66;3741277;79;44061;-22
2021/05/17 10:29:18;;;;;;;0.50;0.50;;;;;;;14.58;91.59;97133.00;3749366;77;43378;-21
2021/05/17 10:34:24;;;;;;;0.95;0.70;;;;;;;14.61;92.64;97136.63;3742756;77;43751;-21
2021/05/17 10:39:37;;;;;;;0.62;0.50;;;;;;;14.12;95.20;97149.30;3733419;77;44164;-22
2021/05/17 10:50:23;;;;;;;1.00;0.42;;;;;;;14.12;95.73;97146.59;3748813;79;44493;-22
2021/05/17 10:55:30;;;;;;;0.30;0.30;;;;;;;13.90;100.00;97138.47;3743159;77;43684;-22
2021/05/17 11:00:38;;;;;;;0.40;0.40;;;;;;;14.12;94.54;97134.41;3750597;79;43679;-22
2021/05/17 11:05:45;;;;;;;1.15;0.40;;;;;;;13.79;91.67;97136.73;3726318;77;43708;-22
2021/05/17 11:10:54;;;;;;;1.15;0.60;;;;;;;14.04;91.40;97134.66;3739016;77;43682;-22
2021/05/17 11:16:04;;;;;;;1.57;0.50;;;;;;;14.48;91.58;97137.02;3746429;77;44228;-21
2021/05/17 11:21:17;;;;;;;1.57;0.53;;;;;;;14.16;100.00;97146.48;3716733;78;44040;-22
2021/05/17 11:26:25;;;;;;;0.62;0.53;;;;;;;13.37;99.35;97160.52;3694859;79;42800;-22
2021/05/17 11:31:41;;;;;;;0.50;0.50;;;;;;;13.35;100.00;97149.08;3558180;82;43258;-22
2021/05/17 11:36:50;;;;;;;2.45;0.50;;;;;;;13.46;100.00;97157.96;3702432;79;43084;-23
2021/05/17 11:42:05;;;;;;;0.42;0.42;;;;;;;14.06;100.00;97152.04;3696725;79;44456;-23
2021/05/17 11:47:13;;;;;;;0.72;0.40;;;;;;;14.04;99.98;97153.62;3689921;79;43652;-23
2021/05/17 11:52:23;;;;;;;1.10;0.50;;;;;;;14.25;98.47;97149.75;3657441;80;43678;-23
2021/05/17 11:57:31;;;;;;;0.93;0.30;;;;;;;14.23;91.32;97151.84;3577780;81;44533;-23
2021/05/17 12:02:45;;;;;;;0.60;0.53;;;;;;;14.23;84.87;97153.19;3706675;79;43014;-23
2021/05/17 12:07:52;;;;;;;0.85;0.55;;;;;;;14.04;94.46;97163.09;3694281;79;43100;-23
2021/05/17 12:13:00;;;;;;;0.80;0.60;;;;;;;13.67;99.56;97173.63;3580347;81;43459;-23
2021/05/17 12:18:11;;;;;;;1.82;0.70;;;;;;;13.27;100.00;97179.91;3699360;79;43649;-23
2021/05/17 12:23:16;;;;;;;1.75;0.93;;;;;;;13.40;100.00;97186.69;3721739;78;43427;-23
2021/05/17 12:28:22;;;;;;;2.00;0.85;;;;;;;13.55;100.00;97186.95;3680855;79;44178;-23
2021/05/17 12:33:29;;;;;;;0.82;0.78;;;;;;;14.20;100.00;97181.23;3720401;79;43387;-23
2021/05/17 12:38:35;;;;;;;1.60;0.98;;;;;;;14.84;100.00;97178.63;3609160;80;43697;-23
2021/05/17 12:43:41;;;;;;;1.12;0.90;;;;;;;15.39;93.74;97172.55;3741023;77;43996;-23
2021/05/17 12:48:50;;;;;;;0.70;0.70;;;;;;;15.77;92.67;97166.63;3747924;77;44472;-23
2021/05/17 12:54:00;;;;;;;1.90;1.00;;;;;;;15.56;95.64;97170.09;3744199;77;43341;-23
2021/05/17 12:59:14;;;;;;;0.85;0.60;;;;;;;16.29;89.85;97161.63;3743084;77;44136;-23
2021/05/17 13:04:27;;;;;;;0.68;0.50;;;;;;;15.97;86.42;97163.19;3745723;77;43427;-23
2021/05/17 13:09:33;;;;;;;0.57;0.57;;;;;;;15.89;82.40;97170.29;3742703;77;44036;-23
2021/05/17 13:14:42;;;;;;;1.37;0.50;;;;;;;15.75;80.87;97176.38;3745575;77;44175;-23
2021/05/17 13:19:55;;;;;;;0.70;0.40;;;;;;;16.69;79.35;97168.95;3746548;77;42652;-23
2021/05/17 13:30:33;;;;;;;0.88;0.40;;;;;;;16.31;81.20;97161.42;3757064;78;43559;-23
2021/05/17 13:35:38;;;;;;;1.22;0.60;;;;;;;16.84;76.21;97156.27;3756941;78;43155;-23
2021/05/17 13:40:44;;;;;;;0.80;0.70;;;;;;;16.12;74.54;97170.12;3758598;77;44506;-23
2021/05/17 13:45:50;;;;;;;2.47;0.68;;;;;;;15.65;79.83;97183.67;3755756;78;44620;-23
2021/05/17 13:50:56;;;;;;;3.12;0.90;;;;;;;13.24;100.00;97233.87;3754495;77;43955;-22
2021/05/17 13:56:02;;;;;;;2.08;0.60;;;;;;;11.45;100.00;97265.34;3757982;77;43301;-22
2021/05/17 14:01:08;;;;;;;1.35;0.50;;;;;;;11.03;100.00;97252.53;3760108;77;43441;-22
2021/05/17 14:06:14;;;;;;;1.60;0.60;;;;;;;11.02;100.00;97254.08;3753445;78;44089;-22
2021/05/17 14:11:20;;;;;;;1.47;0.75;;;;;;;11.10;100.00;97248.05;3755671;77;43589;-22
2021/05/17 14:16:26;;;;;;;1.85;0.72;;;;;;;11.32;100.00;97255.27;3754285;78;44064;-22
2021/05/17 14:21:32;;;;;;;1.27;0.62;;;;;;;11.69;100.00;97264.91;3747303;77;44228;-20
2021/05/17 14:26:39;;;;;;;1.62;0.85;;;;;;;12.00;100.00;97251.52;3749353;77;44136;-20
2021/05/17 14:31:46;;;;;;;4.17;0.60;;;;;;;12.04;100.00;97263.27;3736084;77;44086;-21
2021/05/17 14:36:52;;;;;;;1.20;0.60;;;;;;;12.11;100.00;97256.03;3749635;77;44086;-21
2021/05/17 14:41:59;;;;;;;1.98;0.65;;;;;;;12.36;100.00;97255.52;3742713;77;43272;-21
2021/05/17 14:47:05;;;;;;;0.65;0.65;;;;;;;12.80;100.00;97258.25;3745258;77;42945;-21
2021/05/17 14:52:14;;;;;;;2.00;0.68;;;;;;;13.44;100.00;97257.43;3746483;77;44187;-21
2021/05/17 14:57:21;;;;;;;0.65;0.40;;;;;;;14.16;100.00;97247.20;3749739;77;43432;-20
2021/05/17 15:02:28;;;;;;;1.70;0.35;;;;;;;14.99;100.00;97263.22;3723593;77;44626;-20
2021/05/17 15:07:35;;;;;;;0.30;0.30;;;;;;;15.15;100.00;97251.52;3753463;77;44361;-21
2021/05/17 15:12:45;;;;;;;1.50;0.40;;;;;;;15.36;92.23;97256.57;3745347;77;44415;-22
2021/05/17 15:17:51;;;;;;;0.60;0.40;;;;;;;15.66;94.33;97251.84;3729568;79;43750;-21
2021/05/17 15:23:02;;;;;;;1.15;0.47;;;;;;;15.70;92.16;97253.04;3741708;78;43718;-21
2021/05/17 15:28:09;;;;;;;0.65;0.50;;;;;;;15.65;90.84;97258.33;3762090;77;26852;-21
2021/05/17 15:33:16;;;;;;;1.72;0.40;;;;;;;15.15;81.46;97246.09;3770763;77;43246;-21
2021/05/17 15:38:22;;;;;;;0.90;0.50;;;;;;;16.09;86.51;97242.56;3768918;77;43696;-22
2021/05/17 15:43:31;;;;;;;0.80;0.50;;;;;;;15.99;78.15;97249.36;3763265;77;43402;-22
2021/05/17 15:48:43;;;;;;;0.70;0.40;;;;;;;16.21;79.08;97251.63;3753673;78;43685;-22
2021/05/17 15:53:45;;;;;;;0.78;0.40;;;;;;;15.95;73.44;97250.85;3748000;78;43822;-22
2021/05/17 15:58:51;;;;;;;0.50;0.40;;;;;;;15.50;79.76;97257.83;3759113;77;43440;-22
2021/05/17 16:03:59;;;;;;;0.40;0.20;;;;;;;14.99;84.78;97262.38;3756803;77;43496;-22
2021/05/17 16:09:06;;;;;;;0.65;0.30;;;;;;;15.11;80.07;97261.98;3756588;77;44642;-22
2021/05/17 16:14:18;;;;;;;0.75;0.40;;;;;;;14.80;85.43;97255.52;3760198;77;44353;-21
2021/05/17 16:24:47;;;;;;;1.07;0.60;;;;;;;15.62;89.39;97269.62;3762551;77;43101;-22
2021/05/17 16:29:53;;;;;;;1.05;0.55;;;;;;;16.43;78.33;97249.80;3756189;77;43401;-22
2021/05/17 16:35:00;;;;;;;0.75;0.60;;;;;;;16.41;79.25;97249.19;3757710;78;43731;-22
2021/05/17 16:40:09;;;;;;;0.70;0.62;;;;;;;15.59;81.77;97247.52;3732374;78;43961;-22
2021/05/17 16:45:16;;;;;;;0.95;0.60;;;;;;;15.08;87.48;97251.56;3740182;79;43999;-22
2021/05/17 16:50:23;;;;;;;1.07;0.70;;;;;;;14.82;91.24;97257.45;3681237;79;44007;-21
2021/05/17 16:55:29;;;;;;;1.37;0.60;;;;;;;14.51;91.85;97256.87;3758719;77;43452;-22
2021/05/17 17:00:35;;;;;;;1.35;0.60;;;;;;;14.18;89.19;97273.55;3764228;78;43298;-22
2021/05/17 17:05:43;;;;;;;0.85;0.60;;;;;;;14.37;91.74;97274.53;3773136;77;43695;-22
2021/05/17 17:10:49;;;;;;;0.68;0.60;;;;;;;14.96;89.10;97285.34;3763699;77;44038;-22
2021/05/17 17:15:55;;;;;;;1.60;0.70;;;;;;;15.01;87.16;97289.58;3756668;78;44205;-22
2021/05/17 17:21:01;;;;;;;0.90;0.70;;;;;;;14.31;96.95;97286.21;3739340;79;44082;-22
2021/05/17 17:26:08;;;;;;;1.10;0.72;;;;;;;14.05;98.82;97277.14;3741121;78;44037;-22
2021/05/17 17:31:15;;;;;;;1.25;0.90;;;;;;;13.84;100.00;97285.80;3680525;80;44498;-22
2021/05/17 17:36:23;;;;;;;2.42;0.82;;;;;;;13.82;99.72;97283.81;3740745;78;43667;-22
2021/05/17 17:41:29;;;;;;;0.72;0.50;;;;;;;14.67;100.00;97280.79;3678720;79;44114;-22
2021/05/17 17:46:36;;;;;;;0.85;0.40;;;;;;;14.66;93.90;97289.94;3741656;79;44105;-23
2021/05/17 17:51:45;;;;;;;0.70;0.40;;;;;;;14.80;90.85;97286.69;3680877;79;43322;-22
2021/05/17 17:56:53;;;;;;;0.60;0.30;;;;;;;14.81;78.56;97298.35;3740363;78;44065;-22
2021/05/17 18:02:01;;;;;;;0.50;0.35;;;;;;;14.52;78.95;97297.30;3680759;80;44060;-22
2021/05/17 18:07:07;;;;;;;0.85;0.37;;;;;;;14.30;81.70;97304.36;3736666;78;44470;-22
2021/05/17 18:12:17;;;;;;;0.55;0.42;;;;;;;14.24;81.60;97309.80;3737478;78;44025;-22
2021/05/17 18:17:23;;;;;;;0.55;0.40;;;;;;;14.12;80.46;97310.95;3620303;80;43527;-22
2021/05/17 18:22:29;;;;;;;0.57;0.30;;;;;;;13.96;81.24;97318.50;3737258;79;44012;-22
2021/05/17 18:27:35;;;;;;;0.68;0.30;;;;;;;13.62;80.09;97321.75;3624269;80;44045;-22
2021/05/17 18:32:44;;;;;;;0.57;0.50;;;;;;;13.25;84.25;97326.67;3758224;78;43297;-22
2021/05/17 18:37:49;;;;;;;0.57;0.40;;;;;;;12.94;86.62;97333.44;3759757;77;43260;-22
2021/05/17 18:43:03;;;;;;;0.55;0.40;;;;;;;12.61;93.45;97336.36;3759462;77;43175;-22
2021/05/17 18:48:12;;;;;;;0.40;0.40;;;;;;;12.44;91.06;97335.02;3768247;77;43709;-22
2021/05/17 18:53:18;;;;;;;1.27;0.57;;;;;;;12.40;91.16;97339.98;3767619;77;43701;-22
2021/05/17 18:58:25;;;;;;;1.62;0.50;;;;;;;12.28;91.78;97346.48;3767884;78;44028;-22
2021/05/17 19:03:31;;;;;;;0.50;0.30;;;;;;;12.09;91.82;97341.77;3764831;77;44059;-22
2021/05/17 19:08:38;;;;;;;0.40;0.40;;;;;;;11.83;91.06;97366.16;3759530;78;44030;-22
2021/05/17 19:13:45;;;;;;;0.40;0.40;;;;;;;11.67;93.62;97365.42;3759718;77;43381;-22
2021/05/17 19:18:51;;;;;;;1.22;0.35;;;;;;;11.48;96.21;97381.74;3759039;77;44416;-23
2021/05/17 19:23:57;;;;;;;0.47;0.40;;;;;;;11.38;98.81;97379.36;3747825;78;44086;-22
2021/05/17 19:29:04;;;;;;;0.53;0.50;;;;;;;11.35;100.00;97385.13;3754714;77;43334;-22
2021/05/17 19:34:09;;;;;;;0.63;0.50;;;;;;;11.33;100.00;97392.60;3738705;79;43478;-21
2021/05/17 19:39:15;;;;;;;0.42;0.42;;;;;;;11.33;100.00;97395.30;3753626;77;44501;-22
2021/05/17 19:44:24;;;;;;;1.07;0.50;;;;;;;11.25;100.00;97402.13;3747884;77;43144;-22
2021/05/17 19:49:30;;;;;;;0.60;0.55;;;;;;;11.24;100.00;97408.55;3747343;77;44439;-22
2021/05/17 19:54:38;;;;;;;0.53;0.50;;;;;;;11.16;100.00;97409.53;3745465;77;43638;-22
2021/05/17 19:59:44;;;;;;;0.57;0.50;;;;;;;11.10;100.00;97401.69;3754630;77;43428;-22
2021/05/17 20:04:50;;;;;;;0.88;0.50;;;;;;;10.98;100.00;97405.05;3743931;79;43723;-22
2021/05/17 20:09:56;;;;;;;0.70;0.50;;;;;;;10.83;100.00;97403.73;3755086;77;44048;-22
2021/05/17 20:15:02;;;;;;;0.95;0.60;;;;;;;10.81;100.00;97401.73;3749264;77;42935;-23
2021/05/17 20:20:11;;;;;;;0.95;0.70;;;;;;;10.74;100.00;97399.80;3744937;79;44007;-22
2021/05/17 20:25:19;;;;;;;3.25;0.60;;;;;;;10.70;100.00;97403.88;3748912;77;44037;-21
2021/05/17 20:30:28;;;;;;;2.75;0.70;;;;;;;10.76;100.00;97407.16;3752862;77;43496;-22
2021/05/17 20:35:46;;;;;;;1.55;0.53;;;;;;;10.82;100.00;97409.61;3740237;77;44835;-22
2021/05/17 20:40:54;;;;;;;0.90;0.60;;;;;;;10.82;100.00;97411.48;3747237;79;43615;-22
2021/05/17 20:46:04;;;;;;;0.50;0.50;;;;;;;10.79;100.00;97411.36;3739486;77;43979;-22
2021/05/17 20:51:10;;;;;;;1.25;0.72;;;;;;;10.78;100.00;97411.85;3750938;77;44060;-30
2021/05/17 20:56:16;;;;;;;1.92;0.70;;;;;;;10.80;100.00;97411.69;3728760;77;44357;-21
2021/05/17 21:01:21;;;;;;;0.98;0.60;;;;;;;10.77;100.00;97412.88;3748480;77;43395;-22
2021/05/17 21:06:27;;;;;;;0.85;0.70;;;;;;;10.76;100.00;97412.55;3745527;79;44130;-21
2021/05/17 21:11:33;;;;;;;1.67;0.60;;;;;;;10.77;100.00;97419.61;3739011;79;43022;-22
2021/05/17 21:16:39;;;;;;;0.63;0.63;;;;;;;10.77;100.00;97419.61;3745931;77;44033;-22
2021/05/17 21:21:47;;;;;;;0.60;0.60;;;;;;;10.71;100.00;97420.86;3750060;77;44171;-22
2021/05/17 21:26:53;;;;;;;1.23;0.50;;;;;;;10.72;100.00;97420.70;3736048;77;73125;-22
2021/05/17 21:32:00;;;;;;;1.20;0.70;;;;;;;10.72;100.00;97419.34;3743300;77;43472;-22
2021/05/17 21:37:05;;;;;;;0.60;0.60;;;;;;;10.72;100.00;97422.54;3755504;79;44072;-22
2021/05/17 21:42:12;;;;;;;0.65;0.65;;;;;;;10.68;100.00;97426.66;3745671;79;43292;-22
2021/05/17 21:47:18;;;;;;;2.15;0.70;;;;;;;10.73;100.00;97424.21;3750853;77;43715;-21
2021/05/17 21:52:25;;;;;;;1.72;0.70;;;;;;;10.76;100.00;97426.02;3736768;77;43683;-21
2021/05/17 21:57:31;;;;;;;0.55;0.55;;;;;;;10.73;100.00;97422.38;3741102;79;43127;-22
2021/05/17 22:02:36;;;;;;;1.20;0.70;;;;;;;10.72;100.00;97426.58;3750240;77;43331;-22
2021/05/17 22:13:06;;;;;;;1.07;0.80;;;;;;;10.69;100.00;97441.27;3751198;79;73276;-22
2021/05/17 22:18:13;;;;;;;1.25;0.70;;;;;;;10.71;100.00;97440.58;3753041;77;73187;-22
2021/05/17 22:23:19;;;;;;;2.62;0.93;;;;;;;10.73;100.00;97448.45;3745662;79;44374;-22
2021/05/17 22:28:26;;;;;;;1.15;0.90;;;;;;;10.66;100.00;97451.06;3742347;77;43740;-23
2021/05/17 22:33:34;;;;;;;3.02;1.00;;;;;;;10.66;100.00;97447.55;3756507;77;42945;-22
2021/05/17 22:38:40;;;;;;;1.20;1.00;;;;;;;10.64;100.00;97450.44;3747201;77;44051;-22
2021/05/17 22:43:45;;;;;;;0.95;0.85;;;;;;;10.61;100.00;97457.53;3747814;77;42930;-22
2021/05/17 22:48:58;;;;;;;0.80;0.80;;;;;;;10.60;100.00;97459.38;3734030;77;43240;-22
2021/05/17 22:54:04;;;;;;;1.17;1.03;;;;;;;10.59;100.00;97474.38;3742045;79;44513;-22
2021/05/17 22:59:10;;;;;;;1.22;0.90;;;;;;;10.58;100.00;97476.25;3739628;77;43719;-22
2021/05/17 23:04:15;;;;;;;1.73;1.10;;;;;;;10.58;100.00;97482.12;3746336;77;73298;-21
2021/05/17 23:09:21;;;;;;;1.67;1.10;;;;;;;10.59;100.00;97485.16;3734188;79;44113;-22
2021/05/17 23:14:28;;;;;;;2.55;1.27;;;;;;;10.65;100.00;97487.09;3757068;77;44051;-22
2021/05/17 23:19:34;;;;;;;4.37;1.72;;;;;;;10.70;100.00;97494.65;3736989;78;44047;-22
2021/05/17 23:30:06;;;;;;;2.33;1.90;;;;;;;10.88;100.00;97496.94;3749880;77;44062;-22
2021/05/17 23:35:13;;;;;;;2.47;2.27;;;;;;;10.89;100.00;97495.43;3752181;77;43753;-22
2021/05/17 23:40:20;;;;;;;2.65;2.27;;;;;;;10.85;100.00;97495.98;3746871;77;43699;-22
2021/05/17 23:45:26;;;;;;;3.98;2.80;;;;;;;10.88;100.00;97496.94;3748829;77;43689;-22
2021/05/17 23:50:32;;;;;;;2.95;2.65;;;;;;;10.86;100.00;97500.36;3735466;79;44083;-22
2021/05/17 23:55:38;;;;;;;3.95;2.80;;;;;;;10.86;100.00;97505.75;3744417;79;44023;-22
